Terminal Aerodrome Forecast
Issued by NWS North Platte, NE

Home | Current Version | Previous Version | Text Only | Print | Product List | Glossary Off
Versions: 1 2 3 4 5 6 7 8 9 10 11 12 13 14

000
FTUS43 KLBF 211120
TAFVTN
TAF
KVTN 211120Z 2112/2212 28007KT P6SM SKC
     FM211500 31010KT P6SM SKC
     FM211800 31012G18KT P6SM BKN080
     FM220100 28006KT P6SM BKN110=

USA.gov is the U.S. government's official web portal to all federal, state and local government web resources and services.